Time;durP1;ratioP1;P1;durP2;ratioP2;P2;SDS_P1;SDS_P2;PMS_P1;PMS_P2;Temp;Humidity;BMP_temperature;BMP_pressure;BME280_temperature;BME280_humidity;BME280_pressure;Samples;Min_cycle;Max_cycle;Signal;HPM_P1;HPM_P2
2021/12/17 00:00:59;;;;;;;80.40;48.90;;;7.10;99.90;;;;;;5054250;28;20567;-75
2021/12/17 00:03:44;;;;;;;77.93;49.90;;;7.10;99.90;;;;;;5054248;28;20632;-75
2021/12/17 00:07:01;;;;;;;78.47;49.20;;;7.20;99.90;;;;;;5054155;28;20164;-75
2021/12/17 00:09:02;;;;;;;77.90;50.10;;;7.10;99.90;;;;;;5050038;28;20629;-75
2021/12/17 00:11:28;;;;;;;77.43;48.40;;;7.10;99.90;;;;;;5053940;28;20169;-75
2021/12/17 00:13:55;;;;;;;81.17;51.23;;;7.10;99.90;;;;;;5054174;28;20167;-75
2021/12/17 00:16:25;;;;;;;77.00;49.53;;;7.20;99.90;;;;;;5054054;28;20162;-75
2021/12/17 00:19:01;;;;;;;78.97;50.73;;;7.20;99.90;;;;;;5053795;28;20672;-75
2021/12/17 00:48:42;;;;;;;71.50;46.17;;;6.80;99.90;;;;;;5053767;28;20231;-74
2021/12/17 00:51:54;;;;;;;67.53;46.33;;;6.70;99.90;;;;;;5052007;28;20181;-75
2021/12/17 00:54:23;;;;;;;60.30;42.73;;;6.60;99.90;;;;;;5052631;28;20255;-75
2021/12/17 00:56:51;;;;;;;64.70;44.37;;;6.50;99.90;;;;;;5051832;28;20172;-76
2021/12/17 00:59:17;;;;;;;67.30;45.20;;;6.40;99.90;;;;;;5053208;28;20244;-77
2021/12/17 01:01:44;;;;;;;64.90;44.50;;;6.40;99.90;;;;;;5053088;28;20260;-75
2021/12/17 01:04:11;;;;;;;59.63;44.20;;;6.30;99.90;;;;;;5053179;28;20165;-75
2021/12/17 01:06:37;;;;;;;64.53;44.90;;;6.30;99.90;;;;;;5052553;28;20165;-76
2021/12/17 01:09:05;;;;;;;65.23;45.13;;;6.30;99.90;;;;;;5051347;28;20227;-75
2021/12/17 01:11:31;;;;;;;68.97;46.10;;;6.30;99.90;;;;;;5053275;28;20169;-76
2021/12/17 01:13:57;;;;;;;65.17;44.93;;;6.20;99.90;;;;;;5052970;28;20519;-76
2021/12/17 01:16:24;;;;;;;69.30;45.33;;;6.10;99.90;;;;;;5052687;28;20173;-76
2021/12/17 01:21:27;;;;;;;71.20;46.40;;;6.10;99.90;;;;;;5053137;28;20169;-76
2021/12/17 01:42:26;;;;;;;95.03;60.93;;;6.00;99.90;;;;;;5052828;28;20201;-75
2021/12/17 01:44:51;;;;;;;102.97;61.10;;;6.10;99.90;;;;;;5052646;28;20204;-75
2021/12/17 01:47:17;;;;;;;95.77;60.97;;;6.10;99.90;;;;;;5052570;28;20174;-75
2021/12/17 02:00:23;;;;;;;153.27;103.67;;;6.10;99.90;;;;;;5051947;28;20193;-75
2021/12/17 02:02:52;;;;;;;207.97;105.00;;;6.10;99.90;;;;;;5052224;28;20162;-75
2021/12/17 02:05:18;;;;;;;239.50;96.73;;;5.90;99.90;;;;;;5051458;28;20170;-75
2021/12/17 02:07:46;;;;;;;191.47;90.37;;;5.80;99.90;;;;;;5049978;28;20268;-74
2021/12/17 02:10:49;;;;;;;136.60;84.40;;;5.70;99.90;;;;;;5051729;28;20162;-75
2021/12/17 02:19:29;;;;;;;125.07;77.80;;;5.70;99.90;;;;;;5051434;28;20177;-75
2021/12/17 02:21:56;;;;;;;112.33;68.47;;;5.80;99.90;;;;;;5056151;28;20214;-75
2021/12/17 02:32:13;;;;;;;129.37;61.40;;;5.70;99.90;;;;;;5056094;28;20165;-75
2021/12/17 02:37:18;;;;;;;145.83;66.07;;;5.60;99.90;;;;;;5055276;28;20295;-75
2021/12/17 02:47:38;;;;;;;144.33;64.97;;;5.50;99.90;;;;;;5055912;28;20218;-75
2021/12/17 02:50:05;;;;;;;164.27;80.93;;;5.50;99.90;;;;;;5055586;28;20167;-75
2021/12/17 02:52:36;;;;;;;189.93;94.67;;;5.50;99.90;;;;;;5055629;28;20192;-75
2021/12/17 02:55:04;;;;;;;216.93;93.97;;;5.50;99.90;;;;;;5055669;28;20169;-75
2021/12/17 02:57:30;;;;;;;190.77;95.37;;;5.50;99.90;;;;;;5053948;28;20208;-75
2021/12/17 02:59:56;;;;;;;224.37;101.03;;;5.50;99.90;;;;;;5055407;28;20193;-75
2021/12/17 03:02:25;;;;;;;200.87;96.60;;;5.50;99.90;;;;;;5054143;28;20655;-76
2021/12/17 03:04:52;;;;;;;204.43;107.13;;;5.50;99.90;;;;;;5053917;28;20221;-75
2021/12/17 03:07:18;;;;;;;170.90;112.30;;;5.50;99.90;;;;;;5055427;28;20553;-75
2021/12/17 03:13:03;;;;;;;148.07;99.10;;;5.80;99.90;;;;;;5055509;28;20196;-75
2021/12/17 03:25:46;;;;;;;149.30;57.43;;;6.40;99.90;;;;;;5055485;28;20196;-76
2021/12/17 03:28:11;;;;;;;128.90;58.30;;;6.40;99.90;;;;;;5054945;28;20491;-75
2021/12/17 03:30:37;;;;;;;218.50;61.13;;;6.40;99.90;;;;;;5054652;28;20165;-76
2021/12/17 03:33:03;;;;;;;190.20;49.27;;;6.40;99.90;;;;;;5054717;28;20667;-76
2021/12/17 03:35:29;;;;;;;182.57;45.80;;;6.50;99.90;;;;;;5054643;28;20178;-76
2021/12/17 03:37:54;;;;;;;221.70;49.87;;;6.50;99.90;;;;;;5053566;28;20254;-75
2021/12/17 03:40:20;;;;;;;173.63;48.83;;;6.50;99.90;;;;;;5054565;28;20652;-76
2021/12/17 03:42:49;;;;;;;188.47;49.43;;;6.60;99.90;;;;;;5054673;28;20259;-75
2021/12/17 03:45:17;;;;;;;239.97;48.90;;;6.50;99.90;;;;;;5054459;28;20663;-76
2021/12/17 03:47:43;;;;;;;159.33;44.30;;;6.50;99.90;;;;;;5054354;28;20177;-76
2021/12/17 03:50:09;;;;;;;166.33;43.10;;;6.50;99.90;;;;;;5054084;28;20219;-76
2021/12/17 03:52:35;;;;;;;190.57;43.27;;;6.30;99.90;;;;;;5054495;28;20181;-75
2021/12/17 03:55:00;;;;;;;182.63;47.67;;;6.30;99.90;;;;;;5054154;28;20170;-75
2021/12/17 03:57:26;;;;;;;162.73;47.60;;;6.00;99.90;;;;;;5053377;28;20270;-75
2021/12/17 03:59:52;;;;;;;185.20;49.03;;;6.10;99.90;;;;;;5053303;28;20217;-76
2021/12/17 04:02:18;;;;;;;151.97;45.53;;;6.10;99.90;;;;;;5054198;28;20181;-75
2021/12/17 04:04:44;;;;;;;176.37;46.23;;;6.00;99.90;;;;;;5054053;28;20538;-76
2021/12/17 04:07:10;;;;;;;155.63;46.33;;;6.00;99.90;;;;;;5053988;28;20252;-76
2021/12/17 04:09:36;;;;;;;173.93;46.13;;;6.00;99.90;;;;;;5054311;28;20621;-76
2021/12/17 04:12:06;;;;;;;215.63;48.10;;;6.10;99.90;;;;;;5053995;28;20173;-76
2021/12/17 04:14:46;;;;;;;169.10;45.57;;;6.00;99.90;;;;;;5053669;28;20174;-76
2021/12/17 04:17:20;;;;;;;151.43;42.87;;;6.00;99.90;;;;;;5052143;28;20197;-76
2021/12/17 04:19:45;;;;;;;135.60;41.80;;;6.00;99.90;;;;;;5054050;28;20187;-76
2021/12/17 04:22:11;;;;;;;179.70;45.67;;;6.10;99.90;;;;;;5053647;28;20208;-77
2021/12/17 04:24:37;;;;;;;140.50;42.53;;;6.20;99.90;;;;;;5053855;28;20299;-75
2021/12/17 04:27:02;;;;;;;151.90;41.47;;;6.30;99.90;;;;;;5053514;28;20169;-76
2021/12/17 04:29:28;;;;;;;140.63;38.60;;;6.10;99.90;;;;;;5053621;28;20169;-75
2021/12/17 04:31:55;;;;;;;209.80;43.13;;;6.00;99.90;;;;;;5053012;28;20180;-76
2021/12/17 04:34:22;;;;;;;158.73;39.57;;;6.10;99.90;;;;;;5053151;28;20207;-75
2021/12/17 04:36:50;;;;;;;121.13;38.30;;;6.00;99.90;;;;;;5053950;28;20173;-76
2021/12/17 04:39:18;;;;;;;129.77;38.30;;;6.00;99.90;;;;;;5053507;28;20185;-75
2021/12/17 04:41:55;;;;;;;133.03;36.90;;;6.00;99.90;;;;;;5051327;28;20157;-75
2021/12/17 04:44:30;;;;;;;146.07;37.77;;;6.10;99.90;;;;;;5053072;28;20252;-76
2021/12/17 04:57:56;;;;;;;81.83;35.07;;;6.00;99.90;;;;;;5053093;28;20215;-76
2021/12/17 05:00:26;;;;;;;109.57;35.00;;;6.10;99.90;;;;;;5052648;28;20189;-75
2021/12/17 05:02:54;;;;;;;85.97;33.23;;;6.10;99.90;;;;;;5051241;28;20180;-76
2021/12/17 05:05:25;;;;;;;88.73;34.33;;;6.00;99.90;;;;;;5052892;28;20696;-76
2021/12/17 05:07:55;;;;;;;109.80;34.63;;;6.00;99.90;;;;;;5052858;28;20165;-76
2021/12/17 05:20:54;;;;;;;85.67;32.53;;;5.50;99.90;;;;;;5052659;28;20201;-76
2021/12/17 05:23:27;;;;;;;104.70;33.50;;;5.50;99.90;;;;;;5052253;28;20236;-76
2021/12/17 05:25:53;;;;;;;90.57;33.80;;;5.60;99.90;;;;;;5052635;28;20181;-77
2021/12/17 05:28:19;;;;;;;87.67;33.53;;;5.50;99.90;;;;;;5051607;28;20188;-76
2021/12/17 05:30:47;;;;;;;113.00;34.43;;;5.40;99.90;;;;;;5052010;28;20165;-76
2021/12/17 05:33:20;;;;;;;90.33;32.83;;;5.40;99.90;;;;;;5051055;28;20181;-75
2021/12/17 05:35:47;;;;;;;111.23;34.47;;;5.30;99.90;;;;;;5052290;28;20168;-76
2021/12/17 05:38:14;;;;;;;117.67;34.17;;;5.30;99.90;;;;;;5052634;28;20227;-76
2021/12/17 05:40:40;;;;;;;92.83;33.53;;;5.30;99.90;;;;;;5052411;28;20177;-76
2021/12/17 05:43:06;;;;;;;106.83;31.87;;;5.10;99.90;;;;;;5052090;28;20621;-76
2021/12/17 05:45:48;;;;;;;177.77;38.83;;;5.00;99.90;;;;;;5050533;28;20223;-76
2021/12/17 05:48:15;;;;;;;219.30;41.83;;;4.90;99.90;;;;;;5052180;28;20172;-77
2021/12/17 05:50:44;;;;;;;111.63;37.10;;;4.90;99.90;;;;;;5050937;28;20255;-76
2021/12/17 05:53:10;;;;;;;355.70;49.43;;;5.00;99.90;;;;;;5051709;28;20605;-75
2021/12/17 05:55:37;;;;;;;277.30;43.70;;;4.90;99.90;;;;;;5056159;28;20181;-75
2021/12/17 05:58:07;;;;;;;82.83;31.17;;;4.80;99.90;;;;;;5056507;28;20671;-75
2021/12/17 06:00:34;;;;;;;139.50;35.70;;;4.90;99.90;;;;;;5055433;28;20193;-75
2021/12/17 06:03:02;;;;;;;117.67;33.57;;;4.60;99.90;;;;;;5055944;28;20173;-76
2021/12/17 06:05:28;;;;;;;116.30;36.20;;;4.60;99.90;;;;;;5055023;28;20173;-76
2021/12/17 06:07:54;;;;;;;147.87;39.83;;;4.70;99.90;;;;;;5055836;28;20608;-75
2021/12/17 06:10:20;;;;;;;158.97;37.13;;;4.60;99.90;;;;;;5054992;28;20620;-76
2021/12/17 06:12:47;;;;;;;194.63;44.00;;;4.50;99.90;;;;;;5054954;28;20516;-75
2021/12/17 06:15:15;;;;;;;199.87;42.30;;;4.60;99.90;;;;;;5055142;28;20252;-75
2021/12/17 06:17:42;;;;;;;197.33;42.00;;;4.70;99.90;;;;;;5055493;28;20212;-75
2021/12/17 06:20:09;;;;;;;167.00;39.03;;;4.70;99.90;;;;;;5055239;28;20727;-75
2021/12/17 06:22:35;;;;;;;175.33;40.73;;;4.80;99.90;;;;;;5054665;28;20641;-75
2021/12/17 06:25:03;;;;;;;185.37;42.57;;;4.80;99.90;;;;;;5054942;28;20236;-75
2021/12/17 06:27:28;;;;;;;141.23;36.90;;;4.90;99.90;;;;;;5053826;28;20173;-75
2021/12/17 06:29:54;;;;;;;135.83;39.97;;;4.90;99.90;;;;;;5054242;28;20165;-75
2021/12/17 06:32:21;;;;;;;216.20;43.70;;;4.90;99.90;;;;;;5055177;28;20208;-75
2021/12/17 06:34:48;;;;;;;166.77;40.60;;;5.00;99.90;;;;;;5053457;28;20181;-77
2021/12/17 06:37:15;;;;;;;170.83;39.17;;;4.90;99.90;;;;;;5054530;28;20240;-75
2021/12/17 06:39:41;;;;;;;127.07;36.63;;;5.00;99.90;;;;;;5054197;28;20209;-76
2021/12/17 06:42:08;;;;;;;152.33;39.13;;;4.90;99.90;;;;;;5053851;28;20226;-75
2021/12/17 06:44:33;;;;;;;213.07;41.03;;;5.00;99.90;;;;;;5054713;28;20268;-76
2021/12/17 06:49:45;;;;;;;165.40;38.00;;;4.90;99.90;;;;;;5055112;28;20177;-77
2021/12/17 06:56:18;;;;;;;208.43;43.07;;;5.00;99.90;;;;;;5054297;28;20645;-76
2021/12/17 07:00:33;;;;;;;120.93;38.23;;;5.10;99.90;;;;;;5054161;28;20197;-75
2021/12/17 07:10:50;;;;;;;93.40;35.17;;;5.00;99.90;;;;;;5054003;28;20577;-76
2021/12/17 07:39:37;;;;;;;132.47;40.27;;;5.40;99.90;;;;;;5054250;28;20170;-76
2021/12/17 07:42:04;;;;;;;147.90;42.13;;;5.40;99.90;;;;;;5052813;28;20192;-75
2021/12/17 07:44:32;;;;;;;161.50;42.80;;;5.50;99.90;;;;;;5053839;28;20710;-76
2021/12/17 07:46:58;;;;;;;209.00;47.37;;;5.50;99.90;;;;;;5053525;28;20253;-76
2021/12/17 07:49:24;;;;;;;171.47;46.53;;;5.60;99.90;;;;;;5053185;28;20212;-76
2021/12/17 07:51:49;;;;;;;191.63;45.37;;;5.70;99.90;;;;;;5053487;28;20573;-76
2021/12/17 07:54:18;;;;;;;162.00;43.47;;;5.80;99.90;;;;;;5052485;28;20180;-77
2021/12/17 07:56:45;;;;;;;132.13;42.17;;;5.80;99.90;;;;;;5052555;28;20177;-77
2021/12/17 07:59:12;;;;;;;170.23;47.80;;;5.80;99.90;;;;;;5053523;28;20229;-76
2021/12/17 08:01:39;;;;;;;155.87;48.67;;;5.90;99.90;;;;;;5052856;28;20246;-76
2021/12/17 08:04:07;;;;;;;188.33;52.40;;;6.00;99.90;;;;;;5051897;28;20690;-76
2021/12/17 08:06:34;;;;;;;192.07;49.27;;;6.00;99.90;;;;;;5052858;28;20172;-76
2021/12/17 08:09:00;;;;;;;190.37;46.90;;;6.20;99.90;;;;;;5052357;28;20181;-76
2021/12/17 08:11:27;;;;;;;155.20;44.93;;;6.30;99.90;;;;;;5052389;28;20582;-76
2021/12/17 08:13:54;;;;;;;165.07;44.57;;;6.30;99.90;;;;;;5050391;28;20177;-76
2021/12/17 08:32:01;;;;;;;186.43;42.40;;;6.90;99.90;;;;;;5053100;28;20173;-75
2021/12/17 08:34:27;;;;;;;180.10;42.17;;;7.00;99.90;;;;;;5052271;28;20177;-76
2021/12/17 08:36:53;;;;;;;189.67;44.93;;;6.90;99.90;;;;;;5052360;28;20196;-76
2021/12/17 08:39:18;;;;;;;156.23;41.07;;;7.00;99.90;;;;;;5051771;28;20696;-75
2021/12/17 08:41:49;;;;;;;182.23;42.50;;;7.00;99.90;;;;;;5052497;28;20248;-75
2021/12/17 08:44:15;;;;;;;172.77;40.20;;;7.10;99.90;;;;;;5052825;28;20206;-75
2021/12/17 08:46:41;;;;;;;147.37;38.80;;;7.00;99.90;;;;;;5052247;28;20181;-74
2021/12/17 08:49:10;;;;;;;189.17;40.40;;;7.00;99.90;;;;;;5058499;28;20250;-75
2021/12/17 08:51:37;;;;;;;220.07;40.57;;;7.00;99.90;;;;;;5070666;28;20185;-75
2021/12/17 08:54:03;;;;;;;141.07;38.00;;;6.90;99.90;;;;;;5071267;28;20198;-76
2021/12/17 08:56:34;;;;;;;292.00;41.73;;;6.90;99.90;;;;;;5071847;28;20640;-75
2021/12/17 08:59:06;;;;;;;132.13;37.47;;;6.90;99.90;;;;;;5071657;28;20208;-76
2021/12/17 09:01:32;;;;;;;272.53;40.53;;;7.00;99.90;;;;;;5071332;28;20194;-75
2021/12/17 09:03:58;;;;;;;256.23;40.67;;;6.80;99.90;;;;;;5069408;28;20165;-74
2021/12/17 09:06:26;;;;;;;253.93;39.40;;;6.80;99.90;;;;;;5071736;28;20199;-74
2021/12/17 09:08:58;;;;;;;256.50;41.37;;;6.70;99.90;;;;;;5071282;28;20253;-75
2021/12/17 09:11:27;;;;;;;327.37;45.03;;;6.80;99.90;;;;;;5071642;28;20219;-74
2021/12/17 09:13:54;;;;;;;287.53;43.67;;;6.80;99.90;;;;;;5071290;28;20302;-75
2021/12/17 09:16:23;;;;;;;127.77;38.60;;;6.90;99.90;;;;;;5071879;28;20275;-74
2021/12/17 09:18:49;;;;;;;230.67;42.00;;;6.90;99.90;;;;;;5070908;28;20208;-74
2021/12/17 09:21:16;;;;;;;156.27;37.90;;;6.90;99.90;;;;;;5071442;28;20256;-74
2021/12/17 09:23:42;;;;;;;198.90;41.70;;;6.90;99.90;;;;;;5071256;28;20220;-74
2021/12/17 09:26:12;;;;;;;170.13;38.47;;;6.80;99.90;;;;;;5070451;28;20172;-74
2021/12/17 09:28:41;;;;;;;157.30;39.73;;;6.60;99.90;;;;;;5071187;28;20245;-76
2021/12/17 09:31:11;;;;;;;158.57;41.00;;;6.60;99.90;;;;;;5071291;28;20215;-74
2021/12/17 09:33:37;;;;;;;122.10;38.97;;;6.70;99.90;;;;;;5070809;28;20251;-74
2021/12/17 09:36:04;;;;;;;141.93;40.27;;;6.80;99.90;;;;;;5071352;28;20235;-73
2021/12/17 09:38:30;;;;;;;149.97;43.17;;;6.80;99.90;;;;;;5071059;28;20255;-74
2021/12/17 09:40:56;;;;;;;217.07;43.90;;;7.00;99.90;;;;;;5071894;28;20179;-76
2021/12/17 09:43:22;;;;;;;113.97;38.47;;;7.10;99.90;;;;;;5070916;28;20650;-74
2021/12/17 09:45:47;;;;;;;133.10;40.53;;;7.10;99.90;;;;;;5070913;28;20165;-75
2021/12/17 09:48:16;;;;;;;100.37;36.30;;;7.10;99.90;;;;;;5070401;28;20186;-74
2021/12/17 09:50:42;;;;;;;116.00;37.57;;;7.10;99.90;;;;;;5071248;28;20176;-74
2021/12/17 09:53:08;;;;;;;119.97;39.63;;;6.90;99.90;;;;;;5071262;28;20191;-75
2021/12/17 09:55:33;;;;;;;106.87;38.90;;;7.00;99.90;;;;;;5070802;28;20620;-75
2021/12/17 09:57:59;;;;;;;113.33;39.97;;;6.90;99.90;;;;;;5070951;28;20239;-75
2021/12/17 10:00:27;;;;;;;133.23;42.93;;;6.90;99.90;;;;;;5071591;28;20184;-75
2021/12/17 10:02:53;;;;;;;113.03;43.27;;;7.00;99.90;;;;;;5070091;28;20216;-75
2021/12/17 10:05:32;;;;;;;115.00;41.63;;;7.00;99.90;;;;;;5069717;28;20180;-74
2021/12/17 10:08:01;;;;;;;109.80;42.33;;;7.00;99.90;;;;;;5070949;28;20281;-75
2021/12/17 10:10:57;;;;;;;114.17;42.67;;;7.20;99.90;;;;;;5070894;28;20222;-75
2021/12/17 10:13:30;;;;;;;116.10;43.57;;;7.30;99.90;;;;;;4989147;28;20262;-75
2021/12/17 10:16:05;;;;;;;122.63;41.47;;;7.30;99.90;;;;;;4973286;28;20642;-74
2021/12/17 10:18:32;;;;;;;113.67;42.47;;;7.30;99.90;;;;;;4988843;28;20222;-75
2021/12/17 10:21:03;;;;;;;101.43;39.60;;;7.50;99.90;;;;;;4991964;28;20179;-75
2021/12/17 10:23:30;;;;;;;124.27;43.47;;;7.60;99.90;;;;;;4972581;28;20190;-76
2021/12/17 10:25:56;;;;;;;109.50;40.33;;;7.50;99.90;;;;;;4989027;28;20336;-75
2021/12/17 10:28:22;;;;;;;109.93;40.00;;;7.50;99.90;;;;;;4989458;28;20690;-74
2021/12/17 10:30:49;;;;;;;109.90;41.93;;;7.40;99.90;;;;;;4988195;28;20187;-75
2021/12/17 10:33:24;;;;;;;117.87;42.83;;;7.30;99.90;;;;;;4987949;28;20189;-76
2021/12/17 10:35:51;;;;;;;124.90;43.23;;;7.40;99.90;;;;;;4989296;28;20266;-75
2021/12/17 10:38:24;;;;;;;120.47;43.30;;;7.40;99.90;;;;;;4988987;28;20211;-75
2021/12/17 10:46:10;;;;;;;113.93;43.73;;;7.30;99.90;;;;;;4993079;28;20209;-75
2021/12/17 10:54:10;;;;;;;101.17;39.70;;;7.60;99.90;;;;;;5071801;28;20270;-75
2021/12/17 10:56:37;;;;;;;113.97;40.63;;;7.60;99.90;;;;;;5073575;28;20169;-76
2021/12/17 10:59:08;;;;;;;110.60;41.60;;;7.50;99.90;;;;;;5074025;28;20235;-75
2021/12/17 11:01:46;;;;;;;116.10;43.60;;;7.50;99.90;;;;;;5072911;28;20196;-75
2021/12/17 11:04:19;;;;;;;110.77;40.47;;;7.50;99.90;;;;;;5072715;28;20183;-75
2021/12/17 11:06:46;;;;;;;128.23;40.63;;;7.50;99.90;;;;;;5074037;28;20636;-75
2021/12/17 11:09:30;;;;;;;113.73;40.30;;;7.50;99.90;;;;;;5072877;28;20573;-75
2021/12/17 11:11:57;;;;;;;131.27;39.77;;;7.40;99.90;;;;;;5073174;28;20172;-75
2021/12/17 11:14:23;;;;;;;112.60;40.63;;;7.40;99.90;;;;;;5071854;28;20179;-75
2021/12/17 11:16:49;;;;;;;122.00;41.60;;;7.50;99.90;;;;;;5073224;28;20177;-75
2021/12/17 11:19:15;;;;;;;134.70;42.40;;;7.50;99.90;;;;;;5071388;28;20234;-75
2021/12/17 11:21:41;;;;;;;155.83;44.20;;;7.50;99.90;;;;;;5073732;28;20628;-75
2021/12/17 11:24:07;;;;;;;156.57;42.20;;;7.60;99.90;;;;;;5072852;28;20224;-75
2021/12/17 11:26:33;;;;;;;145.33;39.30;;;7.60;99.90;;;;;;5073126;28;20183;-73
2021/12/17 11:29:03;;;;;;;140.30;41.23;;;7.60;99.90;;;;;;5073457;28;20184;-75
2021/12/17 11:31:30;;;;;;;149.00;43.37;;;7.60;99.90;;;;;;5073511;28;20161;-76
2021/12/17 11:33:58;;;;;;;150.90;43.80;;;7.60;99.90;;;;;;5073674;28;20181;-75
2021/12/17 11:36:23;;;;;;;197.20;43.40;;;7.80;99.90;;;;;;5071374;28;20517;-74
2021/12/17 11:39:00;;;;;;;149.93;42.33;;;7.80;99.90;;;;;;5072423;28;20205;-75
2021/12/17 11:41:44;;;;;;;176.60;44.57;;;7.80;99.90;;;;;;5072104;28;20168;-76
2021/12/17 11:44:12;;;;;;;128.60;40.33;;;7.90;99.90;;;;;;5072307;28;20180;-75
2021/12/17 11:46:38;;;;;;;136.53;42.13;;;7.90;99.90;;;;;;5071826;28;20156;-75
2021/12/17 11:49:17;;;;;;;144.73;42.17;;;7.90;99.90;;;;;;5072046;28;20312;-75
2021/12/17 11:51:53;;;;;;;129.53;40.73;;;7.80;99.90;;;;;;5072514;28;20238;-75
2021/12/17 11:54:25;;;;;;;118.47;39.97;;;7.90;99.90;;;;;;5070263;28;20229;-75
2021/12/17 11:56:54;;;;;;;145.47;40.90;;;8.00;99.90;;;;;;5072996;28;20640;-76
2021/12/17 11:59:29;;;;;;;129.00;42.73;;;8.10;99.90;;;;;;5072505;28;20212;-76
2021/12/17 12:02:19;;;;;;;117.93;39.80;;;8.20;99.90;;;;;;5072652;28;20172;-76
2021/12/17 12:04:51;;;;;;;125.33;40.57;;;8.20;99.90;;;;;;5069083;28;20601;-75
2021/12/17 12:07:30;;;;;;;117.97;38.23;;;8.20;99.90;;;;;;5072603;28;20708;-75
2021/12/17 12:10:08;;;;;;;118.67;40.07;;;8.20;99.90;;;;;;5072065;28;20196;-75
2021/12/17 12:12:36;;;;;;;132.73;41.17;;;8.30;99.90;;;;;;5072010;28;20628;-75
2021/12/17 12:15:17;;;;;;;109.77;36.70;;;8.30;99.90;;;;;;5071897;28;20164;-75
2021/12/17 12:17:58;;;;;;;127.37;40.20;;;8.30;99.90;;;;;;5072211;28;20295;-75
2021/12/17 12:20:46;;;;;;;105.77;35.63;;;8.30;99.90;;;;;;5068005;28;20165;-75
2021/12/17 12:23:20;;;;;;;117.93;37.97;;;8.20;99.90;;;;;;5070609;28;20188;-74
2021/12/17 12:26:11;;;;;;;111.47;38.93;;;8.30;99.90;;;;;;5071990;28;20627;-76
2021/12/17 12:28:56;;;;;;;117.50;39.53;;;8.20;99.90;;;;;;5049973;28;20666;-75
2021/12/17 12:31:31;;;;;;;106.87;37.37;;;8.20;99.90;;;;;;5071772;28;20184;-75
2021/12/17 12:36:47;;;;;;;100.80;34.57;;;8.30;99.90;;;;;;5072550;28;20183;-75
2021/12/17 12:39:15;;;;;;;98.93;35.43;;;8.20;99.90;;;;;;5071743;28;20275;-76
2021/12/17 12:41:54;;;;;;;111.23;39.10;;;8.20;99.90;;;;;;5071026;28;20586;-76
2021/12/17 12:44:19;;;;;;;109.50;38.37;;;8.20;99.90;;;;;;5056209;28;20172;-76
2021/12/17 12:46:54;;;;;;;119.43;38.40;;;8.20;99.90;;;;;;5071715;28;20284;-77
2021/12/17 12:49:42;;;;;;;117.40;38.53;;;8.20;99.90;;;;;;5071235;28;20204;-76
2021/12/17 12:52:45;;;;;;;103.40;35.93;;;8.30;99.90;;;;;;5071806;28;20191;-76
2021/12/17 12:55:33;;;;;;;118.03;38.77;;;8.30;99.90;;;;;;5069963;28;20529;-76
2021/12/17 12:57:59;;;;;;;117.90;37.70;;;8.40;99.90;;;;;;5072121;28;20212;-77
2021/12/17 13:00:28;;;;;;;107.77;37.03;;;8.40;99.90;;;;;;5071882;28;20552;-75
2021/12/17 13:03:03;;;;;;;105.13;37.43;;;8.50;99.90;;;;;;5070989;28;20202;-76
2021/12/17 13:05:31;;;;;;;106.57;36.03;;;8.50;99.90;;;;;;5071869;28;20172;-76
2021/12/17 13:07:58;;;;;;;115.90;38.57;;;8.40;99.90;;;;;;5058636;28;20180;-76
2021/12/17 13:10:31;;;;;;;93.07;32.73;;;8.50;99.90;;;;;;5065834;28;20173;-75
2021/12/17 13:13:06;;;;;;;109.77;37.70;;;8.40;99.90;;;;;;5070385;28;20211;-76
2021/12/17 13:15:44;;;;;;;105.30;36.17;;;8.40;99.90;;;;;;5070657;28;20610;-74
2021/12/17 13:26:35;;;;;;;92.47;34.00;;;8.40;99.90;;;;;;5070338;28;20241;-74
2021/12/17 13:29:11;;;;;;;102.50;36.40;;;8.40;99.90;;;;;;5071252;28;20176;-74
2021/12/17 13:31:56;;;;;;;91.00;34.67;;;8.50;99.90;;;;;;5071041;28;20199;-74
2021/12/17 13:34:38;;;;;;;94.37;33.60;;;8.50;99.90;;;;;;5071203;28;20165;-73
2021/12/17 13:37:21;;;;;;;92.67;34.87;;;8.50;99.90;;;;;;5071148;28;20222;-74
2021/12/17 13:39:57;;;;;;;105.27;35.87;;;8.50;99.90;;;;;;5070885;28;20177;-74
2021/12/17 13:42:27;;;;;;;92.50;36.10;;;8.60;99.90;;;;;;5071278;28;20592;-75
2021/12/17 13:45:14;;;;;;;98.97;37.87;;;8.50;99.90;;;;;;5071372;28;20184;-75
2021/12/17 13:47:47;;;;;;;103.30;35.73;;;8.50;99.90;;;;;;5071349;28;20168;-75
2021/12/17 13:50:12;;;;;;;98.43;36.63;;;8.50;99.90;;;;;;5071387;28;20179;-75
2021/12/17 13:53:01;;;;;;;97.53;35.37;;;8.50;99.90;;;;;;5069933;28;20172;-75
2021/12/17 13:55:36;;;;;;;98.33;34.83;;;8.40;99.90;;;;;;5070449;28;20172;-75
2021/12/17 13:58:07;;;;;;;87.10;32.93;;;8.40;99.90;;;;;;5070346;28;20221;-75
2021/12/17 14:00:36;;;;;;;85.97;32.00;;;8.40;99.90;;;;;;5071293;28;20192;-75
2021/12/17 14:03:04;;;;;;;102.40;36.93;;;8.40;99.90;;;;;;5071279;28;20165;-75
2021/12/17 14:05:40;;;;;;;103.80;36.57;;;8.50;99.90;;;;;;5070373;28;20172;-75
2021/12/17 14:08:11;;;;;;;87.80;32.83;;;8.60;99.90;;;;;;5070952;28;20165;-75
2021/12/17 14:10:37;;;;;;;98.70;36.57;;;8.50;99.90;;;;;;5070175;28;20577;-75
2021/12/17 14:13:05;;;;;;;100.03;36.63;;;8.60;99.90;;;;;;5070707;28;20579;-74
2021/12/17 14:15:35;;;;;;;99.60;35.83;;;8.60;99.90;;;;;;5074653;28;20176;-74
2021/12/17 14:18:06;;;;;;;98.80;37.00;;;8.60;99.90;;;;;;5074203;28;20188;-74
2021/12/17 14:20:48;;;;;;;98.60;37.40;;;8.60;99.90;;;;;;5074795;28;20259;-75
2021/12/17 14:23:19;;;;;;;90.13;33.20;;;8.60;99.90;;;;;;5074282;28;20184;-74
2021/12/17 14:25:53;;;;;;;98.17;37.47;;;8.60;99.90;;;;;;5072848;28;20180;-74
2021/12/17 14:28:26;;;;;;;92.40;32.47;;;8.50;99.90;;;;;;5074098;28;20469;-74
2021/12/17 14:30:57;;;;;;;89.93;32.63;;;8.60;99.90;;;;;;5074011;28;20176;-75
2021/12/17 14:33:31;;;;;;;101.70;37.77;;;8.50;99.90;;;;;;5073688;28;20223;-74
2021/12/17 14:36:02;;;;;;;106.97;43.60;;;8.50;99.90;;;;;;5057691;28;20204;-75
2021/12/17 14:38:46;;;;;;;100.03;37.63;;;8.60;99.90;;;;;;5073524;28;20285;-75
2021/12/17 14:41:17;;;;;;;90.30;36.07;;;8.70;99.90;;;;;;5074255;28;20272;-75
2021/12/17 14:44:07;;;;;;;95.17;34.93;;;8.70;99.90;;;;;;5073690;28;20164;-75
2021/12/17 14:46:57;;;;;;;86.47;34.23;;;8.70;99.90;;;;;;5074701;28;20268;-75
2021/12/17 14:57:19;;;;;;;88.47;34.77;;;8.70;99.90;;;;;;5071868;28;20270;-74
2021/12/17 15:00:32;;;;;;;82.70;31.63;;;8.70;99.90;;;;;;5072169;28;20778;-74
2021/12/17 15:03:07;;;;;;;82.33;33.40;;;8.70;99.90;;;;;;5072552;28;20513;-75
2021/12/17 15:05:33;;;;;;;81.87;32.73;;;8.80;99.90;;;;;;5068445;28;20196;-75
2021/12/17 15:08:00;;;;;;;80.53;31.63;;;8.70;99.90;;;;;;5072891;28;20175;-74
2021/12/17 15:10:27;;;;;;;80.63;32.47;;;8.80;99.90;;;;;;5071563;28;20269;-75
2021/12/17 15:12:56;;;;;;;75.00;31.90;;;8.90;99.90;;;;;;5073822;28;20173;-75
2021/12/17 15:15:24;;;;;;;77.30;31.27;;;8.80;99.90;;;;;;5073940;28;20209;-75
2021/12/17 15:17:53;;;;;;;75.63;30.53;;;8.90;99.90;;;;;;5073937;28;20228;-75
2021/12/17 15:20:37;;;;;;;78.60;32.70;;;8.90;99.90;;;;;;5074155;28;20171;-75
2021/12/17 15:23:04;;;;;;;83.43;34.73;;;8.90;99.90;;;;;;5073309;28;20169;-74
2021/12/17 15:25:30;;;;;;;75.23;33.80;;;8.90;99.90;;;;;;5072075;28;20230;-75
2021/12/17 15:27:55;;;;;;;69.90;29.27;;;8.90;99.90;;;;;;5073858;28;20276;-75
2021/12/17 15:30:46;;;;;;;83.50;33.80;;;8.90;99.90;;;;;;5073901;28;20263;-73
2021/12/17 15:33:13;;;;;;;83.13;34.87;;;8.90;99.90;;;;;;5063656;28;20227;-75
2021/12/17 15:35:39;;;;;;;79.13;32.37;;;9.00;99.90;;;;;;5072997;28;20165;-75
2021/12/17 15:38:08;;;;;;;80.90;33.17;;;9.00;99.90;;;;;;5073636;28;20334;-75
2021/12/17 15:40:34;;;;;;;68.93;27.07;;;9.00;99.90;;;;;;5072354;28;20632;-75
2021/12/17 15:43:03;;;;;;;70.07;31.67;;;9.00;99.90;;;;;;5073775;28;20181;-74
2021/12/17 15:45:34;;;;;;;77.13;34.40;;;9.00;99.90;;;;;;5072755;28;20543;-75
2021/12/17 15:48:00;;;;;;;85.47;35.53;;;9.00;99.90;;;;;;5072969;28;20176;-75
2021/12/17 15:50:26;;;;;;;79.10;33.93;;;9.00;99.90;;;;;;5072173;28;20168;-75
2021/12/17 15:52:52;;;;;;;79.23;32.70;;;9.10;99.90;;;;;;5072806;28;20218;-75
2021/12/17 15:55:20;;;;;;;81.50;33.40;;;9.00;99.90;;;;;;5072793;28;20192;-75
2021/12/17 15:57:47;;;;;;;58.40;23.60;;;9.00;99.90;;;;;;5072867;28;20200;-75
2021/12/17 16:00:15;;;;;;;83.47;34.07;;;9.00;99.90;;;;;;5073242;28;20255;-75
2021/12/17 16:02:42;;;;;;;72.37;31.13;;;9.00;99.90;;;;;;5072600;28;20175;-75
2021/12/17 16:05:10;;;;;;;73.27;29.57;;;9.10;99.90;;;;;;5071911;28;20259;-76
2021/12/17 16:07:36;;;;;;;72.37;29.20;;;9.00;99.90;;;;;;5071746;28;20539;-75
2021/12/17 16:18:16;;;;;;;79.03;33.97;;;9.00;99.90;;;;;;5030700;28;20229;-75
2021/12/17 16:21:03;;;;;;;69.97;32.30;;;9.00;99.90;;;;;;5065931;28;20172;-75